createdAt,value
2018-08-16T00:00:12.652Z,81.10
2018-08-16T00:02:41.107Z,81.30
2018-08-16T00:05:09.607Z,81.20
2018-08-16T00:07:38.114Z,81.90
2018-08-16T00:10:10.695Z,82.30
2018-08-16T00:12:39.372Z,81.80
2018-08-16T00:15:08.707Z,82.40
2018-08-16T00:17:37.287Z,83.40
2018-08-16T00:20:06.492Z,83.90
2018-08-16T00:22:35.049Z,83.50
2018-08-16T00:25:04.000Z,83.90
2018-08-16T00:27:32.480Z,83.90
2018-08-16T00:30:01.028Z,84.10
2018-08-16T00:32:29.418Z,83.90
2018-08-16T00:34:57.879Z,83.90
2018-08-16T00:37:26.651Z,83.90
2018-08-16T00:39:55.077Z,84.10
2018-08-16T00:42:23.560Z,84.90
2018-08-16T00:44:51.964Z,85.20
2018-08-16T00:47:20.375Z,85.70
2018-08-16T00:49:48.868Z,86.10
2018-08-16T00:52:17.330Z,86.30
2018-08-16T00:54:45.989Z,86.50
2018-08-16T00:57:14.373Z,86.50
2018-08-16T00:59:42.917Z,85.80
2018-08-16T01:02:11.397Z,86.40
2018-08-16T01:04:39.908Z,86.60
2018-08-16T01:07:08.480Z,86.60
2018-08-16T01:09:36.918Z,87.40
2018-08-16T01:12:05.654Z,87.40
2018-08-16T01:14:35.207Z,87.60
2018-08-16T01:17:03.672Z,88.60
2018-08-16T01:19:32.326Z,89.00
2018-08-16T01:22:00.691Z,89.30
2018-08-16T01:24:29.177Z,89.40
2018-08-16T01:26:57.651Z,89.10
2018-08-16T01:29:26.152Z,88.70
2018-08-16T01:31:54.679Z,88.90
2018-08-16T01:34:23.220Z,89.80
2018-08-16T01:36:51.642Z,89.60
2018-08-16T01:39:20.267Z,89.40
2018-08-16T01:41:48.776Z,88.80
2018-08-16T01:44:17.232Z,89.90
2018-08-16T01:46:45.663Z,90.10
2018-08-16T01:49:37.283Z,90.10
2018-08-16T01:52:06.445Z,90.20
2018-08-16T01:54:35.345Z,90.60
2018-08-16T01:57:04.408Z,90.60
2018-08-16T01:59:32.887Z,90.50
2018-08-16T02:02:01.400Z,90.10
2018-08-16T02:04:29.849Z,90.10
2018-08-16T02:06:58.493Z,90.70
2018-08-16T02:09:26.954Z,91.10
2018-08-16T02:11:55.428Z,91.10
2018-08-16T02:14:23.889Z,91.10
2018-08-16T02:16:52.347Z,90.80
2018-08-16T02:19:20.893Z,90.40
2018-08-16T02:21:49.345Z,90.40
2018-08-16T02:24:17.972Z,90.50
2018-08-16T02:26:46.437Z,91.00
2018-08-16T02:29:14.981Z,91.10
2018-08-16T02:31:43.512Z,91.10
2018-08-16T02:34:11.925Z,91.10
2018-08-16T02:36:40.424Z,91.10
2018-08-16T02:39:10.076Z,91.10
2018-08-16T02:41:39.236Z,91.10
2018-08-16T02:44:08.427Z,91.10
2018-08-16T02:46:37.166Z,91.10
2018-08-16T02:49:05.816Z,91.30
2018-08-16T02:51:34.556Z,91.30
2018-08-16T02:54:03.709Z,91.80
2018-08-16T02:56:32.147Z,91.80
2018-08-16T02:59:00.587Z,92.20
2018-08-16T03:01:29.139Z,92.20
2018-08-16T03:03:57.594Z,92.00
2018-08-16T03:06:26.066Z,92.30
2018-08-16T03:08:54.529Z,92.20
2018-08-16T03:11:23.877Z,92.30
2018-08-16T03:13:52.311Z,92.40
2018-08-16T03:16:20.781Z,92.30
2018-08-16T03:18:49.213Z,91.90
2018-08-16T03:21:17.791Z,92.00
2018-08-16T03:23:46.300Z,92.10
2018-08-16T03:26:14.775Z,92.30
2018-08-16T03:28:43.298Z,92.00
2018-08-16T03:31:12.307Z,92.30
2018-08-16T03:33:41.031Z,92.20
2018-08-16T03:36:09.763Z,92.40
2018-08-16T03:38:38.286Z,92.30
2018-08-16T03:41:06.858Z,91.90
2018-08-16T03:43:35.416Z,92.20
2018-08-16T03:46:03.996Z,92.20
2018-08-16T03:48:32.646Z,91.70
2018-08-16T03:51:01.107Z,91.70
2018-08-16T03:53:29.857Z,91.70
2018-08-16T03:55:58.549Z,91.80
2018-08-16T03:58:27.103Z,91.80
2018-08-16T04:00:56.116Z,92.30
2018-08-16T04:03:24.554Z,92.40
2018-08-16T04:05:53.144Z,92.60
2018-08-16T04:08:21.821Z,92.40
2018-08-16T04:10:50.408Z,92.50
2018-08-16T04:13:18.845Z,92.20
2018-08-16T04:15:47.310Z,92.40
2018-08-16T04:18:15.713Z,92.00
2018-08-16T04:20:44.096Z,91.50
2018-08-16T04:23:12.567Z,91.40
2018-08-16T04:25:41.133Z,91.10
2018-08-16T04:28:09.535Z,91.30
2018-08-16T04:30:38.335Z,91.40
2018-08-16T04:33:07.748Z,91.70
2018-08-16T04:35:37.074Z,91.60
2018-08-16T04:38:34.789Z,91.30
2018-08-16T04:41:07.396Z,91.50
2018-08-16T04:43:36.222Z,91.50
2018-08-16T04:46:05.762Z,91.20
2018-08-16T04:48:34.446Z,91.30
2018-08-16T04:51:02.831Z,90.90
2018-08-16T04:53:31.210Z,91.20
2018-08-16T04:55:59.687Z,91.60
2018-08-16T04:58:28.132Z,91.30
2018-08-16T05:00:56.582Z,91.10
2018-08-16T05:03:25.099Z,91.30
2018-08-16T05:05:53.855Z,91.60
2018-08-16T05:08:22.311Z,91.80
2018-08-16T05:10:50.688Z,91.70
2018-08-16T05:13:19.096Z,91.90
2018-08-16T05:15:47.648Z,92.30
2018-08-16T05:18:16.060Z,92.30
2018-08-16T05:20:44.644Z,92.20
2018-08-16T05:23:13.024Z,92.30
2018-08-16T05:25:41.584Z,92.30
2018-08-16T05:28:10.018Z,92.60
2018-08-16T05:30:38.461Z,92.70
2018-08-16T05:33:07.092Z,92.70
2018-08-16T05:35:35.621Z,93.10
2018-08-16T05:38:04.115Z,93.10
2018-08-16T05:40:32.885Z,93.00
2018-08-16T05:43:01.376Z,93.30
2018-08-16T05:45:29.809Z,93.60
2018-08-16T05:47:58.308Z,93.40
2018-08-16T05:50:26.715Z,93.50
2018-08-16T05:52:55.196Z,93.70
2018-08-16T05:55:23.645Z,93.80
2018-08-16T05:57:52.056Z,93.50
2018-08-16T06:00:21.888Z,93.20
2018-08-16T06:02:50.283Z,93.20
2018-08-16T06:05:18.828Z,93.20
2018-08-16T06:07:49.421Z,92.80
2018-08-16T06:10:18.301Z,92.70
2018-08-16T06:12:46.692Z,92.40
2018-08-16T06:15:16.257Z,92.30
2018-08-16T06:17:44.708Z,92.40
2018-08-16T06:20:13.397Z,92.10
2018-08-16T06:22:42.187Z,91.40
2018-08-16T06:25:12.565Z,91.10
2018-08-16T06:27:41.223Z,90.90
2018-08-16T06:30:12.444Z,90.40
2018-08-16T06:32:40.889Z,90.20
2018-08-16T06:35:09.378Z,90.30
2018-08-16T06:37:38.066Z,90.10
2018-08-16T06:40:09.296Z,90.10
2018-08-16T06:42:38.141Z,89.20
2018-08-16T06:45:07.899Z,87.60
2018-08-16T06:47:36.489Z,87.80
2018-08-16T06:50:05.244Z,86.20
2018-08-16T06:52:34.200Z,85.00
2018-08-16T06:55:03.574Z,85.00
2018-08-16T06:57:32.283Z,85.00
2018-08-16T07:00:00.793Z,85.40
2018-08-16T07:02:29.232Z,84.90
2018-08-16T07:04:57.731Z,84.10
2018-08-16T07:07:26.792Z,83.90
2018-08-16T07:09:56.794Z,83.50
2018-08-16T07:12:25.825Z,83.10
2018-08-16T07:14:54.231Z,83.00
2018-08-16T07:17:22.860Z,76.80
2018-08-16T07:19:51.381Z,69.30
2018-08-16T07:22:19.947Z,68.60
2018-08-16T07:24:48.479Z,67.30
2018-08-16T07:27:16.907Z,64.70
2018-08-16T07:29:45.406Z,62.50
2018-08-16T07:32:13.797Z,49.70
2018-08-16T07:34:42.494Z,49.00
2018-08-16T07:37:10.930Z,47.10
2018-08-16T07:39:39.540Z,41.20
2018-08-16T07:42:07.984Z,42.50
2018-08-16T07:44:36.735Z,44.60
2018-08-16T07:47:05.948Z,46.70
2018-08-16T07:49:34.592Z,48.80
2018-08-16T07:52:03.233Z,49.30
2018-08-16T07:54:31.740Z,51.20
2018-08-16T07:57:00.232Z,53.10
2018-08-16T07:59:28.788Z,52.10
2018-08-16T08:01:57.292Z,51.70
2018-08-16T08:04:25.748Z,52.90
2018-08-16T08:06:54.152Z,54.50
2018-08-16T08:09:22.736Z,56.00
2018-08-16T08:11:52.243Z,57.20
2018-08-16T08:14:20.774Z,58.10
2018-08-16T08:16:49.180Z,54.10
2018-08-16T08:19:17.800Z,54.30
2018-08-16T08:21:46.394Z,56.30
2018-08-16T08:24:14.855Z,56.20
2018-08-16T08:26:43.292Z,56.10
2018-08-16T08:29:11.743Z,56.20
2018-08-16T08:31:40.403Z,53.30
2018-08-16T08:34:08.977Z,51.20
2018-08-16T08:36:48.776Z,51.30
2018-08-16T08:39:17.431Z,52.20
2018-08-16T08:41:45.940Z,50.70
2018-08-16T08:44:17.412Z,50.40
2018-08-16T08:46:46.653Z,49.80
2018-08-16T08:49:15.181Z,51.10
2018-08-16T08:51:43.663Z,51.50
2018-08-16T08:54:23.101Z,52.00
2018-08-16T08:57:03.084Z,51.10
2018-08-16T08:59:31.586Z,51.00
2018-08-16T09:01:59.836Z,51.70
2018-08-16T09:04:28.250Z,53.30
2018-08-16T09:06:56.689Z,52.10
2018-08-16T09:09:25.299Z,53.50
2018-08-16T09:12:05.766Z,53.10
2018-08-16T09:14:45.701Z,54.30
2018-08-16T09:17:14.059Z,54.50
2018-08-16T09:19:42.436Z,54.20
2018-08-16T09:22:10.852Z,54.30
2018-08-16T09:24:39.310Z,53.30
2018-08-16T09:27:07.891Z,53.90
2018-08-16T09:30:19.784Z,54.10
2018-08-16T09:32:59.621Z,54.10
2018-08-16T09:35:28.630Z,53.70
2018-08-16T09:37:57.399Z,52.80
2018-08-16T09:40:25.822Z,52.90
2018-08-16T09:42:54.329Z,52.80
2018-08-16T09:45:34.094Z,52.70
2018-08-16T09:48:13.817Z,52.20
2018-08-16T09:50:42.284Z,52.20
2018-08-16T09:53:10.796Z,51.70
2018-08-16T09:55:39.392Z,51.00
2018-08-16T09:58:08.025Z,51.00
2018-08-16T10:00:42.798Z,51.40
2018-08-16T10:03:11.360Z,51.20
2018-08-16T10:05:39.696Z,51.20
2018-08-16T10:08:08.425Z,51.70
2018-08-16T10:10:37.323Z,51.50
2018-08-16T10:13:06.162Z,51.50
2018-08-16T10:15:35.932Z,51.60
2018-08-16T10:18:05.994Z,50.70
2018-08-16T10:20:35.333Z,51.10
2018-08-16T10:23:04.046Z,51.20
2018-08-16T10:25:33.302Z,51.00
2018-08-16T10:28:01.995Z,51.20
2018-08-16T10:30:31.150Z,51.70
2018-08-16T10:32:59.646Z,50.90
2018-08-16T10:35:28.276Z,50.60
2018-08-16T10:37:56.836Z,51.30
2018-08-16T10:40:25.328Z,50.20
2018-08-16T10:42:53.817Z,50.60
2018-08-16T10:45:22.380Z,49.70
2018-08-16T10:47:50.943Z,49.80
2018-08-16T10:50:19.420Z,49.40
2018-08-16T10:52:48.184Z,49.20
2018-08-16T10:55:16.733Z,49.10
2018-08-16T10:57:45.528Z,49.00
2018-08-16T11:00:14.022Z,48.50
2018-08-16T11:02:43.390Z,48.10
2018-08-16T11:05:11.813Z,47.50
2018-08-16T11:07:40.477Z,47.00
2018-08-16T11:10:09.026Z,46.90
2018-08-16T11:12:37.512Z,47.20
2018-08-16T11:15:06.586Z,47.70
2018-08-16T11:17:35.315Z,46.70
2018-08-16T11:20:03.900Z,47.20
2018-08-16T11:22:32.728Z,48.10
2018-08-16T11:25:01.176Z,47.30
2018-08-16T11:27:29.581Z,47.50
2018-08-16T11:29:58.006Z,47.20
2018-08-16T11:32:26.391Z,47.20
2018-08-16T11:34:54.925Z,46.50
2018-08-16T11:37:23.388Z,46.70
2018-08-16T11:39:51.880Z,46.50
2018-08-16T11:42:20.333Z,47.40
2018-08-16T11:44:49.093Z,47.30
2018-08-16T11:47:17.860Z,46.70
2018-08-16T11:49:46.754Z,45.00
2018-08-16T11:52:15.519Z,44.50
2018-08-16T11:54:44.886Z,43.00
2018-08-16T11:57:13.908Z,43.00
2018-08-16T11:59:42.408Z,43.00
2018-08-16T12:02:11.234Z,43.00
2018-08-16T12:04:40.658Z,42.90
2018-08-16T12:07:09.217Z,43.00
2018-08-16T12:09:37.793Z,43.00
2018-08-16T12:12:06.658Z,43.00
2018-08-16T12:14:35.162Z,42.90
2018-08-16T12:17:03.677Z,43.00
2018-08-16T12:19:32.108Z,41.90
2018-08-16T12:22:01.068Z,42.10
2018-08-16T12:24:29.501Z,41.00
2018-08-16T12:26:57.973Z,39.50
2018-08-16T12:29:26.495Z,39.70
2018-08-16T12:31:54.978Z,39.40
2018-08-16T12:34:23.418Z,39.60
2018-08-16T12:36:51.889Z,38.20
2018-08-16T12:39:20.388Z,38.90
2018-08-16T12:41:48.887Z,40.80
2018-08-16T12:44:17.462Z,40.70
2018-08-16T12:46:45.870Z,40.60
2018-08-16T12:49:14.437Z,39.30
2018-08-16T12:51:42.967Z,39.80
2018-08-16T12:54:11.553Z,40.20
2018-08-16T12:56:40.020Z,40.20
2018-08-16T12:59:08.518Z,38.40
2018-08-16T13:01:38.169Z,37.50
2018-08-16T13:04:06.968Z,38.00
2018-08-16T13:06:35.632Z,39.40
2018-08-16T13:09:07.910Z,38.00
2018-08-16T13:11:36.702Z,38.50
2018-08-16T13:14:05.596Z,38.60
2018-08-16T13:16:34.699Z,37.70
2018-08-16T13:19:03.860Z,37.30
2018-08-16T13:21:32.354Z,36.10
2018-08-16T13:24:01.641Z,36.20
2018-08-16T13:26:30.265Z,34.60
2018-08-16T13:28:58.770Z,35.80
2018-08-16T13:31:27.195Z,36.20
2018-08-16T13:33:55.691Z,36.30
2018-08-16T13:36:24.128Z,35.90
2018-08-16T13:38:52.653Z,34.10
2018-08-16T13:41:21.444Z,33.60
2018-08-16T13:43:49.625Z,33.80
2018-08-16T13:46:18.092Z,33.90
2018-08-16T13:48:46.756Z,34.30
2018-08-16T13:51:15.173Z,34.70
2018-08-16T13:53:43.695Z,36.20
2018-08-16T13:56:12.204Z,35.80
2018-08-16T13:58:40.717Z,34.90
2018-08-16T14:01:09.204Z,34.80
2018-08-16T14:03:37.687Z,35.10
2018-08-16T14:06:06.268Z,33.90
2018-08-16T14:08:35.032Z,33.90
2018-08-16T14:11:04.839Z,33.90
2018-08-16T14:13:33.501Z,33.80
2018-08-16T14:16:01.974Z,33.70
2018-08-16T14:18:30.469Z,34.10
2018-08-16T14:20:58.989Z,32.70
2018-08-16T14:23:27.573Z,32.60
2018-08-16T14:25:56.160Z,31.90
2018-08-16T14:28:24.897Z,32.50
2018-08-16T14:30:53.433Z,32.40
2018-08-16T14:33:21.839Z,33.20
2018-08-16T14:35:50.330Z,33.30
2018-08-16T14:38:18.929Z,29.90
2018-08-16T14:40:47.382Z,29.90
2018-08-16T14:43:15.862Z,31.90
2018-08-16T14:45:44.520Z,32.50
2018-08-16T14:48:12.923Z,32.70
2018-08-16T14:50:42.420Z,31.50
2018-08-16T14:53:10.925Z,31.50
2018-08-16T14:55:39.459Z,31.90
2018-08-16T14:58:08.073Z,32.70
2018-08-16T15:00:36.594Z,32.90
2018-08-16T15:03:07.390Z,32.90
2018-08-16T15:05:35.990Z,31.70
2018-08-16T15:08:04.543Z,30.60
2018-08-16T15:10:33.282Z,29.20
2018-08-16T15:13:01.829Z,29.20
2018-08-16T15:15:30.412Z,29.30
2018-08-16T15:17:59.943Z,29.20
2018-08-16T15:20:28.476Z,29.40
2018-08-16T15:22:56.951Z,29.20
2018-08-16T15:25:25.386Z,29.40
2018-08-16T15:27:53.793Z,30.30
2018-08-16T15:30:22.316Z,30.20
2018-08-16T15:32:51.378Z,29.50
2018-08-16T15:35:20.579Z,29.90
2018-08-16T15:37:49.359Z,29.40
2018-08-16T15:40:18.237Z,29.00
2018-08-16T15:42:47.062Z,29.20
2018-08-16T15:45:15.787Z,29.40
2018-08-16T15:47:44.273Z,30.00
2018-08-16T15:50:12.712Z,29.60
2018-08-16T15:52:41.249Z,29.20
2018-08-16T15:55:09.820Z,29.20
2018-08-16T15:57:38.685Z,29.20
2018-08-16T16:00:10.100Z,29.20
2018-08-16T16:02:39.260Z,29.40
2018-08-16T16:05:07.958Z,29.20
2018-08-16T16:07:36.616Z,29.10
2018-08-16T16:10:05.903Z,28.70
2018-08-16T16:12:34.824Z,28.20
2018-08-16T16:15:03.397Z,28.20
2018-08-16T16:17:32.013Z,28.10
2018-08-16T16:20:00.463Z,27.50
2018-08-16T16:22:36.216Z,27.50
2018-08-16T16:25:05.477Z,28.00
2018-08-16T16:27:34.003Z,28.70
2018-08-16T16:30:03.254Z,28.60
2018-08-16T16:32:31.896Z,28.70
2018-08-16T16:35:01.052Z,29.10
2018-08-16T16:37:30.284Z,29.20
2018-08-16T16:39:59.054Z,29.10
2018-08-16T16:42:27.956Z,29.10
2018-08-16T16:44:56.406Z,29.10
2018-08-16T16:47:24.900Z,28.70
2018-08-16T16:49:53.306Z,28.90
2018-08-16T16:52:21.707Z,29.00
2018-08-16T16:54:50.601Z,29.10
2018-08-16T16:57:19.242Z,29.10
2018-08-16T16:59:47.678Z,29.00
2018-08-16T17:02:16.190Z,30.00
2018-08-16T17:04:44.647Z,29.40
2018-08-16T17:07:13.152Z,29.70
2018-08-16T17:09:41.537Z,29.90
2018-08-16T17:12:10.058Z,29.90
2018-08-16T17:14:38.449Z,29.60
2018-08-16T17:17:07.345Z,30.10
2018-08-16T17:19:35.904Z,30.70
2018-08-16T17:22:04.549Z,30.90
2018-08-16T17:24:33.016Z,31.20
2018-08-16T17:27:01.604Z,31.20
2018-08-16T17:29:30.188Z,31.30
2018-08-16T17:31:58.635Z,31.40
2018-08-16T17:34:27.012Z,31.20
2018-08-16T17:36:55.834Z,30.90
2018-08-16T17:39:24.220Z,30.80
2018-08-16T17:41:52.612Z,30.80
2018-08-16T17:44:21.037Z,32.10
2018-08-16T17:46:49.652Z,31.60
2018-08-16T17:49:18.081Z,31.50
2018-08-16T17:51:46.565Z,31.50
2018-08-16T17:54:14.972Z,31.80
2018-08-16T17:56:43.631Z,33.30
2018-08-16T17:59:12.147Z,35.30
2018-08-16T18:01:40.594Z,36.00
2018-08-16T18:04:09.312Z,38.40
2018-08-16T18:06:37.788Z,41.60
2018-08-16T18:09:07.373Z,43.00
2018-08-16T18:11:36.054Z,43.00
2018-08-16T18:14:04.624Z,42.90
2018-08-16T18:16:33.402Z,43.70
2018-08-16T18:19:02.166Z,44.70
2018-08-16T18:21:30.883Z,45.80
2018-08-16T18:23:59.346Z,46.20
2018-08-16T18:26:28.222Z,46.20
2018-08-16T18:28:56.665Z,46.50
2018-08-16T18:31:25.056Z,47.40
2018-08-16T18:33:53.812Z,47.90
2018-08-16T18:36:22.541Z,47.70
2018-08-16T18:38:51.401Z,47.60
2018-08-16T18:41:21.440Z,48.10
2018-08-16T18:43:50.032Z,48.20
2018-08-16T18:46:18.496Z,48.70
2018-08-16T18:48:47.035Z,49.50
2018-08-16T18:51:15.482Z,49.50
2018-08-16T18:53:50.397Z,49.80
2018-08-16T18:56:18.844Z,49.60
2018-08-16T18:58:47.378Z,49.80
2018-08-16T19:01:15.852Z,49.40
2018-08-16T19:03:44.356Z,49.00
2018-08-16T19:06:12.968Z,49.40
2018-08-16T19:08:41.454Z,50.00
2018-08-16T19:11:10.292Z,50.90
2018-08-16T19:13:39.011Z,50.50
2018-08-16T19:16:08.507Z,50.50
2018-08-16T19:18:37.450Z,51.10
2018-08-16T19:21:06.194Z,51.00
2018-08-16T19:23:35.143Z,51.10
2018-08-16T19:26:05.866Z,51.00
2018-08-16T19:28:34.696Z,51.00
2018-08-16T19:31:04.323Z,51.30
2018-08-16T19:33:33.665Z,51.40
2018-08-16T19:36:02.203Z,51.40
2018-08-16T19:38:30.826Z,51.90
2018-08-16T19:40:59.550Z,52.00
2018-08-16T19:43:28.079Z,52.20
2018-08-16T19:45:56.649Z,52.20
2018-08-16T19:48:26.170Z,52.30
2018-08-16T19:50:54.705Z,52.00
2018-08-16T19:53:23.424Z,52.20
2018-08-16T19:55:51.900Z,52.30
2018-08-16T19:58:20.386Z,52.10
2018-08-16T20:00:48.922Z,52.00
2018-08-16T20:03:17.451Z,50.80
2018-08-16T20:05:46.176Z,50.30
2018-08-16T20:08:14.788Z,50.30
2018-08-16T20:10:43.287Z,50.30
2018-08-16T20:14:36.564Z,50.40
2018-08-16T20:17:05.210Z,50.30
2018-08-16T20:19:33.836Z,50.30
2018-08-16T20:22:02.822Z,49.40
2018-08-16T20:24:31.464Z,49.50
2018-08-16T20:26:59.978Z,49.60
2018-08-16T20:29:28.384Z,49.40
2018-08-16T20:31:56.996Z,50.20
2018-08-16T20:34:25.692Z,50.10
2018-08-16T20:36:54.232Z,51.10
2018-08-16T20:39:22.724Z,51.60
2018-08-16T20:41:51.423Z,50.10
2018-08-16T20:44:20.118Z,50.00
2018-08-16T20:46:48.978Z,49.30
2018-08-16T20:49:17.654Z,49.40
2018-08-16T20:51:46.857Z,49.90
2018-08-16T20:54:16.133Z,50.00
2018-08-16T20:56:45.387Z,50.00
2018-08-16T20:59:15.415Z,49.90
2018-08-16T21:01:44.331Z,49.70
2018-08-16T21:04:15.529Z,51.90
2018-08-16T21:06:44.813Z,52.20
2018-08-16T21:09:13.737Z,51.00
2018-08-16T21:11:43.862Z,52.00
2018-08-16T21:14:12.600Z,52.80
2018-08-16T21:16:41.582Z,53.10
2018-08-16T21:19:10.494Z,52.60
2018-08-16T21:21:39.656Z,53.20
2018-08-16T21:24:08.969Z,52.50
2018-08-16T21:26:37.605Z,53.40
2018-08-16T21:29:06.262Z,54.40
2018-08-16T21:31:34.941Z,54.50
2018-08-16T21:34:04.857Z,54.50
2018-08-16T21:36:35.634Z,53.00
2018-08-16T21:39:06.446Z,51.60
2018-08-16T21:41:35.463Z,51.90
2018-08-16T21:44:04.954Z,53.50
2018-08-16T21:49:16.352Z,55.50
2018-08-16T21:51:45.460Z,55.60
2018-08-16T21:54:15.459Z,55.30
2018-08-16T21:56:45.155Z,55.90
2018-08-16T21:59:14.120Z,56.30
2018-08-16T22:01:42.773Z,55.90
2018-08-16T22:04:11.873Z,55.60
2018-08-16T22:06:51.483Z,55.60
2018-08-16T22:09:20.640Z,55.80
2018-08-16T22:11:49.280Z,56.30
2018-08-16T22:14:17.820Z,57.00
2018-08-16T22:16:46.220Z,57.20
2018-08-16T22:19:19.525Z,57.10
2018-08-16T22:21:48.017Z,57.10
2018-08-16T22:24:16.444Z,57.00
2018-08-16T22:26:45.073Z,57.10
2018-08-16T22:29:13.651Z,56.80
2018-08-16T22:31:42.210Z,56.80
2018-08-16T22:34:10.665Z,57.20
2018-08-16T22:36:39.292Z,58.10
2018-08-16T22:39:10.153Z,58.20
2018-08-16T22:41:38.854Z,58.10
2018-08-16T22:44:07.640Z,58.00
2018-08-16T22:46:37.912Z,57.50
2018-08-16T22:49:06.477Z,58.10
2018-08-16T22:51:35.119Z,58.10
2018-08-16T22:54:03.533Z,58.60
2018-08-16T22:56:31.973Z,58.00
2018-08-16T22:59:00.460Z,58.00
2018-08-16T23:01:28.954Z,57.90
2018-08-16T23:03:57.499Z,57.90
2018-08-16T23:06:26.021Z,57.80
2018-08-16T23:08:54.427Z,58.10
2018-08-16T23:11:22.818Z,58.10
2018-08-16T23:13:51.244Z,58.70
2018-08-16T23:16:19.669Z,59.30
2018-08-16T23:18:48.148Z,59.70
2018-08-16T23:21:16.574Z,60.60
2018-08-16T23:23:45.039Z,60.60
2018-08-16T23:26:13.744Z,61.20
2018-08-16T23:28:42.170Z,61.30
2018-08-16T23:31:10.600Z,62.20
2018-08-16T23:33:39.192Z,61.70
2018-08-16T23:36:08.088Z,61.60
2018-08-16T23:38:36.608Z,61.30
2018-08-16T23:41:05.362Z,61.50
2018-08-16T23:43:33.867Z,60.90
2018-08-16T23:46:02.327Z,60.50
2018-08-16T23:48:31.813Z,61.60
2018-08-16T23:51:00.282Z,61.50
2018-08-16T23:53:28.712Z,61.70
2018-08-16T23:55:57.500Z,62.20
2018-08-16T23:58:25.984Z,61.60
